createdAt,value
2022-09-15T00:00:24.293Z,11.30
2022-09-15T00:01:24.395Z,10.70
2022-09-15T00:02:24.345Z,10.70
2022-09-15T00:03:24.261Z,10.60
2022-09-15T00:04:24.242Z,10.70
2022-09-15T00:05:24.254Z,11.90
2022-09-15T00:06:24.233Z,11.80
2022-09-15T00:07:24.252Z,11.30
2022-09-15T00:08:24.216Z,11.30
2022-09-15T00:09:24.193Z,11.60
2022-09-15T00:10:24.201Z,11.70
2022-09-15T00:11:24.196Z,12.00
2022-09-15T00:12:24.192Z,11.30
2022-09-15T00:13:24.164Z,12.20
2022-09-15T00:14:24.173Z,11.80
2022-09-15T00:15:24.144Z,13.70
2022-09-15T00:16:24.209Z,13.10
2022-09-15T00:17:24.104Z,12.60
2022-09-15T00:18:24.137Z,12.00
2022-09-15T00:19:24.099Z,12.90
2022-09-15T00:20:24.070Z,12.60
2022-09-15T00:21:24.066Z,12.60
2022-09-15T00:22:24.068Z,11.20
2022-09-15T00:23:24.048Z,12.20
2022-09-15T00:24:24.048Z,12.50
2022-09-15T00:25:24.030Z,12.20
2022-09-15T00:26:24.028Z,12.10
2022-09-15T00:27:24.005Z,12.50
2022-09-15T00:28:24.015Z,12.40
2022-09-15T00:29:24.011Z,11.10
2022-09-15T00:30:23.956Z,12.00
2022-09-15T00:31:23.987Z,12.60
2022-09-15T00:32:23.943Z,12.10
2022-09-15T00:33:23.931Z,13.90
2022-09-15T00:34:23.942Z,12.30
2022-09-15T00:35:23.909Z,12.70
2022-09-15T00:36:23.898Z,12.40
2022-09-15T00:37:23.959Z,12.90
2022-09-15T00:38:23.879Z,13.80
2022-09-15T00:39:23.862Z,12.70
2022-09-15T00:40:24.006Z,13.10
2022-09-15T00:41:23.845Z,13.40
2022-09-15T00:42:23.831Z,12.60
2022-09-15T00:43:23.841Z,11.60
2022-09-15T00:44:23.826Z,11.80
2022-09-15T00:45:23.870Z,11.80
2022-09-15T00:46:23.783Z,12.00
2022-09-15T00:47:23.772Z,12.60
2022-09-15T00:48:23.775Z,13.10
2022-09-15T00:49:23.765Z,12.30
2022-09-15T00:50:23.734Z,12.30
2022-09-15T00:51:23.755Z,11.50
2022-09-15T00:52:23.749Z,11.70
2022-09-15T00:53:23.723Z,11.50
2022-09-15T00:54:23.713Z,11.60
2022-09-15T00:55:23.695Z,11.10
2022-09-15T00:56:23.679Z,11.00
2022-09-15T00:57:23.700Z,11.00
2022-09-15T00:58:23.658Z,10.70
2022-09-15T00:59:23.676Z,10.80
2022-09-15T01:00:23.634Z,11.00
2022-09-15T01:01:23.728Z,10.90
2022-09-15T01:02:23.722Z,11.20
2022-09-15T01:03:23.627Z,10.90
2022-09-15T01:04:23.588Z,11.50
2022-09-15T01:05:23.577Z,10.60
2022-09-15T01:06:23.588Z,12.20
2022-09-15T01:07:23.556Z,11.30
2022-09-15T01:08:23.578Z,9.90
2022-09-15T01:09:23.548Z,11.10
2022-09-15T01:10:23.560Z,10.80
2022-09-15T01:11:23.518Z,10.70
2022-09-15T01:12:23.502Z,10.50
2022-09-15T01:13:23.527Z,10.30
2022-09-15T01:14:23.489Z,10.90
2022-09-15T01:15:23.474Z,11.00
2022-09-15T01:16:23.521Z,10.70
2022-09-15T01:17:23.455Z,10.60
2022-09-15T01:18:23.445Z,10.80
2022-09-15T01:19:23.431Z,9.90
2022-09-15T01:20:23.422Z,10.80
2022-09-15T01:21:23.407Z,10.30
2022-09-15T01:22:23.412Z,10.30
2022-09-15T01:23:23.404Z,11.40
2022-09-15T01:24:23.363Z,10.80
2022-09-15T01:25:23.365Z,10.50
2022-09-15T01:26:23.343Z,11.30
2022-09-15T01:27:41.052Z,10.60
2022-09-15T01:28:24.340Z,10.40
2022-09-15T01:29:23.335Z,10.10
2022-09-15T01:30:23.317Z,10.50
2022-09-15T01:31:23.374Z,10.60
2022-09-15T01:32:23.279Z,10.20
2022-09-15T01:33:23.316Z,9.90
2022-09-15T01:34:23.266Z,9.40
2022-09-15T01:35:23.256Z,9.40
2022-09-15T01:36:23.258Z,10.20
2022-09-15T01:37:23.226Z,9.90
2022-09-15T01:38:23.216Z,10.50
2022-09-15T01:39:23.228Z,9.30
2022-09-15T01:40:23.291Z,9.20
2022-09-15T01:41:23.207Z,9.60
2022-09-15T01:42:23.168Z,8.90
2022-09-15T01:43:23.158Z,8.90
2022-09-15T01:44:23.200Z,9.20
2022-09-15T01:45:23.232Z,9.10
2022-09-15T01:46:23.110Z,9.40
2022-09-15T01:47:23.122Z,9.60
2022-09-15T01:48:23.099Z,9.40
2022-09-15T01:49:23.102Z,9.10
2022-09-15T01:50:23.103Z,9.30
2022-09-15T01:51:23.104Z,8.80
2022-09-15T01:52:23.055Z,9.90
2022-09-15T01:53:23.041Z,8.90
2022-09-15T01:54:23.041Z,9.10
2022-09-15T01:55:23.031Z,8.90
2022-09-15T01:56:23.036Z,9.40
2022-09-15T01:57:23.009Z,9.50
2022-09-15T01:58:23.032Z,9.60
2022-09-15T01:59:23.004Z,8.70
2022-09-15T02:00:22.978Z,9.00
2022-09-15T02:01:23.023Z,9.80
2022-09-15T02:02:23.010Z,9.50
2022-09-15T02:03:22.962Z,9.20
2022-09-15T02:04:22.926Z,9.60
2022-09-15T02:05:22.939Z,9.30
2022-09-15T02:06:22.939Z,9.80
2022-09-15T02:07:22.896Z,8.30
2022-09-15T02:08:22.875Z,9.70
2022-09-15T02:09:22.895Z,9.50
2022-09-15T02:10:22.844Z,9.10
2022-09-15T02:11:22.846Z,9.00
2022-09-15T02:12:22.875Z,9.70
2022-09-15T02:13:22.848Z,9.50
2022-09-15T02:14:22.841Z,10.00
2022-09-15T02:15:22.832Z,9.50
2022-09-15T02:16:22.869Z,9.30
2022-09-15T02:17:22.967Z,8.60
2022-09-15T02:18:22.824Z,9.80
2022-09-15T02:19:22.760Z,9.10
2022-09-15T02:20:22.749Z,9.00
2022-09-15T02:21:22.738Z,9.40
2022-09-15T02:22:22.719Z,9.20
2022-09-15T02:23:22.698Z,9.60
2022-09-15T02:24:22.766Z,9.20
2022-09-15T02:25:22.690Z,8.90
2022-09-15T02:26:23.637Z,9.20
2022-09-15T02:27:22.673Z,10.50
2022-09-15T02:28:22.659Z,9.80
2022-09-15T02:29:22.669Z,9.50
2022-09-15T02:30:22.660Z,9.20
2022-09-15T02:31:22.662Z,9.60
2022-09-15T02:32:22.667Z,9.30
2022-09-15T02:33:22.625Z,9.50
2022-09-15T02:34:22.594Z,9.30
2022-09-15T02:35:22.585Z,9.30
2022-09-15T02:36:22.561Z,8.60
2022-09-15T02:37:22.581Z,8.60
2022-09-15T02:38:22.578Z,9.20
2022-09-15T02:39:22.546Z,9.70
2022-09-15T02:40:22.621Z,9.80
2022-09-15T02:41:22.534Z,9.40
2022-09-15T02:42:22.506Z,9.80
2022-09-15T02:43:22.493Z,9.50
2022-09-15T02:44:22.493Z,9.60
2022-09-15T02:45:22.508Z,12.10
2022-09-15T02:46:22.460Z,9.50
2022-09-15T02:47:22.464Z,9.60
2022-09-15T02:48:22.425Z,10.10
2022-09-15T02:49:22.445Z,11.30
2022-09-15T02:50:22.437Z,10.70
2022-09-15T02:51:22.402Z,11.30
2022-09-15T02:52:22.421Z,11.20
2022-09-15T02:53:22.446Z,10.70
2022-09-15T02:54:22.360Z,10.80
2022-09-15T02:55:22.357Z,11.40
2022-09-15T02:56:22.344Z,10.40
2022-09-15T02:57:22.340Z,11.20
2022-09-15T02:58:22.346Z,11.70
2022-09-15T02:59:22.312Z,10.70
2022-09-15T03:00:22.298Z,10.20
2022-09-15T03:01:22.390Z,10.10
2022-09-15T03:02:22.310Z,11.20
2022-09-15T03:03:22.303Z,11.10
2022-09-15T03:04:22.256Z,10.90
2022-09-15T03:05:22.252Z,9.50
2022-09-15T03:06:22.247Z,10.00
2022-09-15T03:07:22.282Z,10.30
2022-09-15T03:08:22.209Z,10.20
2022-09-15T03:09:22.201Z,10.90
2022-09-15T03:10:22.201Z,10.00
2022-09-15T03:11:22.182Z,10.10
2022-09-15T03:12:22.206Z,9.80
2022-09-15T03:13:23.145Z,10.30
2022-09-15T03:14:22.180Z,10.20
2022-09-15T03:15:22.132Z,10.40
2022-09-15T03:16:22.195Z,9.70
2022-09-15T03:17:22.113Z,9.90
2022-09-15T03:18:22.123Z,10.90
2022-09-15T03:19:22.115Z,10.60
2022-09-15T03:20:22.081Z,10.90
2022-09-15T03:21:22.063Z,10.80
2022-09-15T03:22:22.063Z,10.40
2022-09-15T03:23:22.067Z,10.10
2022-09-15T03:24:22.037Z,9.70
2022-09-15T03:25:22.030Z,10.70
2022-09-15T03:26:22.024Z,11.30
2022-09-15T03:27:21.996Z,10.10
2022-09-15T03:28:22.027Z,9.90
2022-09-15T03:29:21.974Z,9.50
2022-09-15T03:30:21.996Z,10.60
2022-09-15T03:31:21.983Z,10.00
2022-09-15T03:32:21.953Z,9.70
2022-09-15T03:33:21.929Z,11.00
2022-09-15T03:34:23.418Z,10.40
2022-09-15T03:35:21.941Z,10.40
2022-09-15T03:36:21.908Z,10.90
2022-09-15T03:37:21.886Z,10.40
2022-09-15T03:38:21.876Z,10.70
2022-09-15T03:39:21.945Z,9.90
2022-09-15T03:40:21.911Z,10.50
2022-09-15T03:41:21.836Z,9.20
2022-09-15T03:42:21.860Z,11.20
2022-09-15T03:43:21.820Z,9.90
2022-09-15T03:44:21.812Z,9.50
2022-09-15T03:45:21.825Z,9.60
2022-09-15T03:46:21.821Z,9.90
2022-09-15T03:47:21.774Z,10.80
2022-09-15T03:48:21.770Z,10.40
2022-09-15T03:49:21.807Z,10.10
2022-09-15T03:50:21.756Z,10.20
2022-09-15T03:51:21.729Z,10.00
2022-09-15T03:52:21.770Z,9.90
2022-09-15T03:53:21.715Z,10.80
2022-09-15T03:54:21.701Z,10.60
2022-09-15T03:55:21.699Z,10.00
2022-09-15T03:56:21.674Z,9.90
2022-09-15T03:57:21.663Z,9.60
2022-09-15T03:58:21.674Z,10.20
2022-09-15T03:59:21.678Z,9.40
2022-09-15T04:00:21.644Z,9.70
2022-09-15T04:01:21.738Z,10.20
2022-09-15T04:02:21.693Z,11.00
2022-09-15T04:03:21.611Z,10.50
2022-09-15T04:04:21.644Z,9.30
2022-09-15T04:05:21.604Z,9.90
2022-09-15T04:06:21.566Z,10.30
2022-09-15T04:07:21.547Z,9.70
2022-09-15T04:08:21.547Z,9.60
2022-09-15T04:09:21.571Z,10.00
2022-09-15T04:10:21.528Z,9.20
2022-09-15T04:11:21.574Z,9.20
2022-09-15T04:12:21.501Z,8.50
2022-09-15T04:13:24.417Z,8.90
2022-09-15T04:14:22.481Z,8.50
2022-09-15T04:15:21.464Z,9.30
2022-09-15T04:16:21.562Z,8.80
2022-09-15T04:17:21.468Z,9.40
2022-09-15T04:18:21.435Z,8.60
2022-09-15T04:19:22.383Z,8.70
2022-09-15T04:20:21.450Z,9.00
2022-09-15T04:21:21.409Z,9.00
2022-09-15T04:22:21.431Z,8.90
2022-09-15T04:23:21.379Z,9.00
2022-09-15T04:24:21.374Z,8.80
2022-09-15T04:25:21.373Z,9.70
2022-09-15T04:26:21.352Z,10.10
2022-09-15T04:27:21.339Z,9.40
2022-09-15T04:28:21.351Z,10.40
2022-09-15T04:29:21.316Z,9.50
2022-09-15T04:30:21.305Z,9.80
2022-09-15T04:31:21.664Z,9.50
2022-09-15T04:32:21.272Z,9.30
2022-09-15T04:33:21.298Z,9.50
2022-09-15T04:34:21.304Z,9.40
2022-09-15T04:35:21.243Z,9.00
2022-09-15T04:36:21.234Z,9.30
2022-09-15T04:37:21.229Z,8.40
2022-09-15T04:38:22.674Z,9.40
2022-09-15T04:39:21.224Z,8.50
2022-09-15T04:40:21.304Z,8.80
2022-09-15T04:41:21.169Z,9.30
2022-09-15T04:42:21.171Z,8.90
2022-09-15T04:43:21.170Z,9.10
2022-09-15T04:44:21.180Z,8.20
2022-09-15T04:45:21.143Z,8.50
2022-09-15T04:46:21.208Z,9.10
2022-09-15T04:47:21.106Z,8.40
2022-09-15T04:48:21.114Z,8.90
2022-09-15T04:49:21.089Z,8.80
2022-09-15T04:50:21.108Z,8.80
2022-09-15T04:51:21.066Z,8.70
2022-09-15T04:52:21.069Z,8.70
2022-09-15T04:53:21.058Z,9.30
2022-09-15T04:54:21.048Z,9.10
2022-09-15T04:55:22.001Z,9.90
2022-09-15T04:56:21.082Z,9.50
2022-09-15T04:57:21.041Z,9.20
2022-09-15T04:58:22.959Z,10.00
2022-09-15T04:59:21.008Z,9.80
2022-09-15T05:00:22.463Z,9.90
2022-09-15T05:01:20.991Z,9.90
2022-09-15T05:02:21.078Z,9.00
2022-09-15T05:03:20.939Z,10.20
2022-09-15T05:04:20.963Z,10.00
2022-09-15T05:05:21.889Z,9.60
2022-09-15T05:06:20.904Z,9.10
2022-09-15T05:07:20.875Z,9.70
2022-09-15T05:08:20.872Z,9.70
2022-09-15T05:09:20.867Z,10.00
2022-09-15T05:10:20.904Z,10.50
2022-09-15T05:11:20.849Z,9.30
2022-09-15T05:12:20.861Z,10.20
2022-09-15T05:13:20.943Z,9.90
2022-09-15T05:14:20.813Z,10.90
2022-09-15T05:15:20.865Z,10.20
2022-09-15T05:16:21.075Z,9.80
2022-09-15T05:17:23.144Z,10.40
2022-09-15T05:18:21.774Z,10.20
2022-09-15T05:19:20.827Z,10.10
2022-09-15T05:20:20.753Z,10.20
2022-09-15T05:21:20.738Z,9.90
2022-09-15T05:22:20.834Z,9.70
2022-09-15T05:23:20.860Z,10.10
2022-09-15T05:24:20.701Z,8.90
2022-09-15T05:25:20.697Z,7.70
2022-09-15T05:26:20.931Z,8.30
2022-09-15T05:27:21.042Z,9.10
2022-09-15T05:28:20.743Z,9.00
2022-09-15T05:29:20.670Z,9.10
2022-09-15T05:30:39.647Z,8.30
2022-09-15T05:31:21.727Z,8.50
2022-09-15T05:32:20.626Z,9.00
2022-09-15T05:33:22.578Z,10.80
2022-09-15T05:34:20.709Z,9.60
2022-09-15T05:35:20.602Z,9.40
2022-09-15T05:36:20.673Z,9.30
2022-09-15T05:37:22.028Z,9.20
2022-09-15T05:38:20.579Z,9.20
2022-09-15T05:39:21.370Z,10.00
2022-09-15T05:40:20.572Z,10.50
2022-09-15T05:41:20.534Z,10.00
2022-09-15T05:42:20.566Z,10.10
2022-09-15T05:43:20.638Z,9.90
2022-09-15T05:44:20.733Z,10.30
2022-09-15T05:45:20.476Z,10.80
2022-09-15T05:46:21.970Z,10.40
2022-09-15T05:47:21.383Z,10.30
2022-09-15T05:48:20.436Z,11.20
2022-09-15T05:49:20.492Z,9.90
2022-09-15T05:50:20.430Z,11.40
2022-09-15T05:51:20.405Z,11.60
2022-09-15T05:52:20.403Z,12.00
2022-09-15T05:53:20.392Z,11.80
2022-09-15T05:54:21.934Z,11.80
2022-09-15T05:55:20.405Z,11.70
2022-09-15T05:56:20.374Z,12.80
2022-09-15T05:57:20.337Z,12.40
2022-09-15T05:58:20.343Z,12.10
2022-09-15T05:59:20.315Z,11.70
2022-09-15T06:00:20.319Z,13.00
2022-09-15T06:01:20.328Z,11.60
2022-09-15T06:02:20.325Z,11.90
2022-09-15T06:03:20.353Z,12.40
2022-09-15T06:04:20.307Z,12.50
2022-09-15T06:05:20.269Z,11.30
2022-09-15T06:06:20.312Z,10.80
2022-09-15T06:07:20.236Z,11.50
2022-09-15T06:08:21.191Z,11.20
2022-09-15T06:09:20.235Z,11.20
2022-09-15T06:10:20.211Z,12.00
2022-09-15T06:11:20.180Z,11.80
2022-09-15T06:12:20.174Z,11.40
2022-09-15T06:13:20.161Z,10.60
2022-09-15T06:14:20.184Z,10.60
2022-09-15T06:15:21.610Z,11.60
2022-09-15T06:16:20.173Z,12.00
2022-09-15T06:17:20.153Z,11.30
2022-09-15T06:18:20.123Z,11.20
2022-09-15T06:19:20.115Z,11.80
2022-09-15T06:20:20.118Z,11.80
2022-09-15T06:21:20.075Z,11.50
2022-09-15T06:22:20.062Z,12.60
2022-09-15T06:23:20.067Z,12.70
2022-09-15T06:24:20.355Z,12.00
2022-09-15T06:25:20.018Z,11.60
2022-09-15T06:26:20.064Z,11.00
2022-09-15T06:27:20.026Z,12.80
2022-09-15T06:28:20.004Z,12.20
2022-09-15T06:29:20.315Z,11.80
2022-09-15T06:30:19.988Z,12.90
2022-09-15T06:31:20.042Z,11.70
2022-09-15T06:32:20.005Z,11.70
2022-09-15T06:33:19.939Z,12.40
2022-09-15T06:34:20.113Z,11.30
2022-09-15T06:35:19.940Z,12.00
2022-09-15T06:36:20.268Z,11.70
2022-09-15T06:37:20.326Z,12.30
2022-09-15T06:38:19.906Z,12.50
2022-09-15T06:39:19.967Z,12.30
2022-09-15T06:40:19.909Z,12.40
2022-09-15T06:41:19.848Z,12.10
2022-09-15T06:42:19.847Z,12.20
2022-09-15T06:43:21.302Z,12.10
2022-09-15T06:44:19.851Z,13.10
2022-09-15T06:45:19.810Z,12.50
2022-09-15T06:46:19.913Z,11.30
2022-09-15T06:47:19.790Z,11.70
2022-09-15T06:48:24.890Z,11.60
2022-09-15T06:49:20.789Z,11.90
2022-09-15T06:50:19.769Z,12.20
2022-09-15T06:51:19.762Z,12.00
2022-09-15T06:52:19.732Z,11.70
2022-09-15T06:53:19.740Z,11.60
2022-09-15T06:54:19.740Z,12.10
2022-09-15T06:55:19.751Z,12.10
2022-09-15T06:56:19.716Z,11.70
2022-09-15T06:57:19.683Z,11.40
2022-09-15T06:58:19.661Z,12.30
2022-09-15T06:59:19.647Z,12.70
2022-09-15T07:00:21.097Z,12.00
2022-09-15T07:01:20.482Z,12.10
2022-09-15T07:02:19.727Z,12.30
2022-09-15T07:03:19.674Z,12.70
2022-09-15T07:04:21.054Z,11.90
2022-09-15T07:05:19.592Z,12.40
2022-09-15T07:06:19.587Z,11.30
2022-09-15T07:07:19.600Z,12.60
2022-09-15T07:08:19.631Z,12.30
2022-09-15T07:09:19.539Z,12.40
2022-09-15T07:10:19.538Z,11.60
2022-09-15T07:11:19.552Z,11.90
2022-09-15T07:12:19.520Z,11.90
2022-09-15T07:13:19.532Z,11.30
2022-09-15T07:14:19.496Z,11.60
2022-09-15T07:15:19.495Z,11.00
2022-09-15T07:16:19.520Z,11.10
2022-09-15T07:17:19.542Z,11.60
2022-09-15T07:18:19.433Z,11.30
2022-09-15T07:19:19.452Z,11.00
2022-09-15T07:20:19.434Z,12.50
2022-09-15T07:21:19.630Z,12.10
2022-09-15T07:22:19.446Z,11.20
2022-09-15T07:23:19.398Z,13.00
2022-09-15T07:24:19.375Z,11.60
2022-09-15T07:25:19.437Z,11.90
2022-09-15T07:26:19.345Z,11.90
2022-09-15T07:27:19.340Z,12.40
2022-09-15T07:28:20.713Z,11.80
2022-09-15T07:29:19.348Z,12.70
2022-09-15T07:30:20.766Z,11.40
2022-09-15T07:31:20.311Z,11.40
2022-09-15T07:32:19.317Z,12.40
2022-09-15T07:33:21.215Z,12.00
2022-09-15T07:34:19.313Z,11.70
2022-09-15T07:35:19.359Z,11.80
2022-09-15T07:36:19.264Z,12.00
2022-09-15T07:37:19.236Z,11.30
2022-09-15T07:38:19.215Z,12.20
2022-09-15T07:39:19.245Z,12.00
2022-09-15T07:40:19.349Z,11.20
2022-09-15T07:41:19.296Z,10.50
2022-09-15T07:42:19.192Z,11.30
2022-09-15T07:43:19.175Z,10.80
2022-09-15T07:44:20.116Z,10.40
2022-09-15T07:45:20.165Z,10.10
2022-09-15T07:46:19.127Z,10.70
2022-09-15T07:47:19.145Z,10.10
2022-09-15T07:48:21.253Z,10.30
2022-09-15T07:49:20.153Z,10.30
2022-09-15T07:50:19.093Z,10.30
2022-09-15T07:51:19.110Z,9.90
2022-09-15T07:52:19.370Z,9.30
2022-09-15T07:53:19.063Z,9.60
2022-09-15T07:54:22.654Z,9.80
2022-09-15T07:55:19.093Z,9.80
2022-09-15T07:56:19.022Z,8.90
2022-09-15T07:57:19.010Z,8.90
2022-09-15T07:58:19.004Z,8.70
2022-09-15T07:59:19.011Z,9.50
2022-09-15T08:00:19.929Z,9.30
2022-09-15T08:01:19.831Z,9.80
2022-09-15T08:02:19.071Z,9.50
2022-09-15T08:03:19.104Z,9.40
2022-09-15T08:04:19.000Z,9.20
2022-09-15T08:05:18.929Z,9.80
2022-09-15T08:06:18.917Z,9.10
2022-09-15T08:07:18.925Z,9.00
2022-09-15T08:08:19.850Z,9.50
2022-09-15T08:09:20.334Z,9.00
2022-09-15T08:10:18.894Z,9.00
2022-09-15T08:11:20.304Z,8.40
2022-09-15T08:12:18.862Z,8.20
2022-09-15T08:13:18.829Z,8.30
2022-09-15T08:14:18.814Z,8.00
2022-09-15T08:15:18.806Z,8.70
2022-09-15T08:16:18.903Z,8.80
2022-09-15T08:17:18.797Z,8.50
2022-09-15T08:18:18.780Z,8.70
2022-09-15T08:19:18.779Z,8.80
2022-09-15T08:20:18.803Z,8.90
2022-09-15T08:21:18.892Z,8.40
2022-09-15T08:22:18.737Z,8.40
2022-09-15T08:23:18.749Z,7.90
2022-09-15T08:24:18.750Z,8.80
2022-09-15T08:25:18.698Z,8.50
2022-09-15T08:26:18.702Z,7.70
2022-09-15T08:27:18.721Z,8.00
2022-09-15T08:28:18.688Z,7.30
2022-09-15T08:29:18.705Z,6.70
2022-09-15T08:30:18.655Z,6.70
2022-09-15T08:31:18.694Z,6.70
2022-09-15T08:32:18.623Z,6.90
2022-09-15T08:33:18.618Z,6.50
2022-09-15T08:34:18.623Z,6.20
2022-09-15T08:35:18.605Z,6.50
2022-09-15T08:36:18.606Z,6.70
2022-09-15T08:37:18.572Z,5.60
2022-09-15T08:38:18.564Z,6.60
2022-09-15T08:39:18.573Z,6.60
2022-09-15T08:40:18.742Z,6.00
2022-09-15T08:41:18.733Z,6.10
2022-09-15T08:42:18.557Z,6.00
2022-09-15T08:43:18.498Z,5.90
2022-09-15T08:44:18.490Z,6.10
2022-09-15T08:45:18.478Z,6.20
2022-09-15T08:46:19.957Z,5.80
2022-09-15T08:47:18.455Z,6.00
2022-09-15T08:48:18.508Z,5.90
2022-09-15T08:49:27.014Z,6.00
2022-09-15T08:50:19.422Z,6.50
2022-09-15T08:51:18.728Z,5.90
2022-09-15T08:52:18.410Z,6.60
2022-09-15T08:53:18.420Z,5.50
2022-09-15T08:54:18.398Z,6.20
2022-09-15T08:55:18.410Z,5.20
2022-09-15T08:56:18.359Z,5.10
2022-09-15T08:57:18.400Z,4.80
2022-09-15T08:58:18.397Z,4.70
2022-09-15T08:59:18.318Z,4.90
2022-09-15T09:00:18.400Z,4.50
2022-09-15T09:01:18.345Z,4.60
2022-09-15T09:02:18.732Z,4.00
2022-09-15T09:03:18.472Z,4.30
2022-09-15T09:04:18.773Z,4.10
2022-09-15T09:05:18.455Z,4.10
2022-09-15T09:06:18.683Z,4.00
2022-09-15T09:07:18.244Z,4.20
2022-09-15T09:08:18.259Z,4.70
2022-09-15T09:09:18.211Z,4.30
2022-09-15T09:10:18.295Z,4.50
2022-09-15T09:11:18.197Z,4.10
2022-09-15T09:12:18.175Z,4.20
2022-09-15T09:13:18.222Z,4.00
2022-09-15T09:14:18.145Z,3.60
2022-09-15T09:15:18.197Z,3.30
2022-09-15T09:16:18.158Z,3.60
2022-09-15T09:17:18.146Z,3.40
2022-09-15T09:18:18.175Z,3.40
2022-09-15T09:19:18.150Z,3.10
2022-09-15T09:20:18.105Z,3.80
2022-09-15T09:21:18.098Z,3.00
2022-09-15T09:22:18.078Z,3.30
2022-09-15T09:23:18.076Z,3.20
2022-09-15T09:24:18.059Z,2.90
2022-09-15T09:25:27.176Z,3.20
2022-09-15T09:26:19.046Z,2.80
2022-09-15T09:27:18.035Z,2.80
2022-09-15T09:28:18.009Z,3.00
2022-09-15T09:29:17.997Z,3.20
2022-09-15T09:30:17.990Z,2.80
2022-09-15T09:31:18.051Z,2.80
2022-09-15T09:32:21.515Z,2.60
2022-09-15T09:33:17.981Z,2.90
2022-09-15T09:34:17.946Z,2.20
2022-09-15T09:35:17.951Z,1.90
2022-09-15T09:36:17.960Z,1.80
2022-09-15T09:37:17.973Z,1.90
2022-09-15T09:38:19.354Z,2.10
2022-09-15T09:39:18.835Z,2.30
2022-09-15T09:40:19.359Z,2.00
2022-09-15T09:41:19.327Z,2.50
2022-09-15T09:42:17.976Z,1.90
2022-09-15T09:43:18.692Z,2.40
2022-09-15T09:44:17.826Z,2.10
2022-09-15T09:45:17.826Z,2.20
2022-09-15T09:46:17.837Z,2.00
2022-09-15T09:47:17.800Z,1.90
2022-09-15T09:48:17.814Z,2.40
2022-09-15T09:49:17.791Z,2.30
2022-09-15T09:50:17.764Z,1.90
2022-09-15T09:51:17.740Z,2.30
2022-09-15T09:52:21.900Z,2.40
2022-09-15T09:53:17.729Z,2.10
2022-09-15T09:54:17.727Z,2.30
2022-09-15T09:55:17.727Z,2.20
2022-09-15T09:56:17.806Z,2.30
2022-09-15T09:57:17.806Z,2.10
2022-09-15T09:58:17.685Z,2.40
2022-09-15T09:59:17.808Z,2.30
2022-09-15T10:00:17.669Z,2.10
2022-09-15T10:01:17.695Z,2.00
2022-09-15T10:02:17.634Z,2.00
2022-09-15T10:03:17.809Z,2.20
2022-09-15T10:04:17.602Z,2.10
2022-09-15T10:05:17.716Z,1.90
2022-09-15T10:06:17.594Z,2.60
2022-09-15T10:07:17.559Z,1.90
2022-09-15T10:08:17.564Z,2.20
2022-09-15T10:09:17.540Z,2.00
2022-09-15T10:10:17.570Z,1.90
2022-09-15T10:11:17.551Z,2.20
2022-09-15T10:12:18.483Z,1.90
2022-09-15T10:13:17.503Z,2.00
2022-09-15T10:14:17.511Z,2.00
2022-09-15T10:15:17.503Z,2.20
2022-09-15T10:16:17.539Z,2.30
2022-09-15T10:17:17.477Z,1.90
2022-09-15T10:18:17.447Z,1.90
2022-09-15T10:19:17.458Z,1.90
2022-09-15T10:20:17.416Z,1.80
2022-09-15T10:21:17.435Z,1.50
2022-09-15T10:22:17.409Z,1.80
2022-09-15T10:23:17.414Z,1.70
2022-09-15T10:24:18.199Z,1.40
2022-09-15T10:25:17.387Z,1.70
2022-09-15T10:26:17.359Z,1.70
2022-09-15T10:27:17.351Z,1.70
2022-09-15T10:28:17.380Z,1.80
2022-09-15T10:29:17.336Z,1.40
2022-09-15T10:30:17.310Z,1.60
2022-09-15T10:31:17.376Z,1.50
2022-09-15T10:32:19.753Z,1.50
2022-09-15T10:33:17.279Z,1.50
2022-09-15T10:34:17.307Z,2.00
2022-09-15T10:35:17.247Z,2.00
2022-09-15T10:36:17.252Z,2.00
2022-09-15T10:37:17.230Z,1.70
2022-09-15T10:38:17.248Z,1.90
2022-09-15T10:39:17.214Z,1.50
2022-09-15T10:40:17.251Z,1.50
2022-09-15T10:41:18.178Z,1.80
2022-09-15T10:42:17.174Z,1.40
2022-09-15T10:43:17.164Z,1.60
2022-09-15T10:44:17.153Z,1.40
2022-09-15T10:45:17.155Z,1.40
2022-09-15T10:46:17.214Z,1.20
2022-09-15T10:47:17.114Z,1.60
2022-09-15T10:48:17.203Z,1.40
2022-09-15T10:49:17.093Z,1.60
2022-09-15T10:50:17.093Z,1.20
2022-09-15T10:51:17.131Z,1.60
2022-09-15T10:52:17.080Z,1.40
2022-09-15T10:53:17.055Z,1.10
2022-09-15T10:54:17.053Z,1.30
2022-09-15T10:55:22.082Z,1.70
2022-09-15T10:56:18.035Z,1.40
2022-09-15T10:57:18.023Z,1.30
2022-09-15T10:58:17.017Z,1.40
2022-09-15T10:59:16.992Z,1.60
2022-09-15T11:00:16.997Z,1.30
2022-09-15T11:01:17.093Z,1.30
2022-09-15T11:02:16.996Z,1.40
2022-09-15T11:03:16.930Z,1.60
2022-09-15T11:04:16.929Z,1.20
2022-09-15T11:05:21.970Z,1.60
2022-09-15T11:06:18.880Z,1.60
2022-09-15T11:07:16.893Z,1.50
2022-09-15T11:08:16.916Z,2.00
2022-09-15T11:09:16.883Z,1.60
2022-09-15T11:10:16.862Z,1.90
2022-09-15T11:11:16.851Z,1.50
2022-09-15T11:12:16.834Z,1.60
2022-09-15T11:13:16.829Z,1.70
2022-09-15T11:14:16.851Z,1.40
2022-09-15T11:15:16.805Z,1.60
2022-09-15T11:16:16.862Z,1.80
2022-09-15T11:17:16.779Z,1.70
2022-09-15T11:18:16.762Z,1.80
2022-09-15T11:19:16.803Z,1.80
2022-09-15T11:20:16.757Z,1.90
2022-09-15T11:21:16.741Z,2.10
2022-09-15T11:22:16.752Z,2.10
2022-09-15T11:23:16.725Z,2.10
2022-09-15T11:24:16.717Z,2.10
2022-09-15T11:25:16.731Z,1.90
2022-09-15T11:26:16.706Z,1.70
2022-09-15T11:27:16.686Z,1.90
2022-09-15T11:28:16.683Z,1.70
2022-09-15T11:29:16.674Z,1.70
2022-09-15T11:30:16.680Z,1.60
2022-09-15T11:31:16.677Z,2.10
2022-09-15T11:32:16.636Z,2.00
2022-09-15T11:33:16.629Z,2.40
2022-09-15T11:34:16.597Z,2.10
2022-09-15T11:35:16.597Z,2.40
2022-09-15T11:36:16.611Z,1.80
2022-09-15T11:37:16.603Z,2.30
2022-09-15T11:38:16.568Z,2.30
2022-09-15T11:39:16.591Z,2.60
2022-09-15T11:40:16.629Z,2.40
2022-09-15T11:41:16.558Z,2.70
2022-09-15T11:42:16.546Z,2.50
2022-09-15T11:43:16.514Z,2.90
2022-09-15T11:44:17.036Z,2.40
2022-09-15T11:45:16.483Z,2.80
2022-09-15T11:46:16.565Z,2.90
2022-09-15T11:47:16.463Z,2.60
2022-09-15T11:48:16.452Z,2.30
2022-09-15T11:49:16.441Z,3.00
2022-09-15T11:50:16.793Z,3.10
2022-09-15T11:51:16.461Z,2.50
2022-09-15T11:52:16.403Z,2.70
2022-09-15T11:53:16.413Z,2.70
2022-09-15T11:54:16.413Z,2.60
2022-09-15T11:55:16.374Z,2.80
2022-09-15T11:56:16.351Z,2.50
2022-09-15T11:57:16.389Z,2.70
2022-09-15T11:58:21.041Z,2.50
2022-09-15T11:59:17.357Z,2.60
2022-09-15T12:00:16.316Z,2.40
2022-09-15T12:01:16.316Z,2.60
2022-09-15T12:02:16.405Z,2.70
2022-09-15T12:03:16.324Z,2.40
2022-09-15T12:04:16.319Z,2.40
2022-09-15T12:05:16.263Z,2.30
2022-09-15T12:06:16.259Z,2.30
2022-09-15T12:07:16.233Z,2.40
2022-09-15T12:08:16.258Z,2.70
2022-09-15T12:09:16.220Z,2.40
2022-09-15T12:10:16.218Z,2.20
2022-09-15T12:11:16.231Z,2.90
2022-09-15T12:12:16.197Z,2.60
2022-09-15T12:13:16.167Z,2.40
2022-09-15T12:14:16.270Z,2.80
2022-09-15T12:15:17.132Z,3.10
2022-09-15T12:16:16.178Z,2.40
2022-09-15T12:17:16.136Z,2.20
2022-09-15T12:18:37.363Z,2.80
2022-09-15T12:19:17.181Z,2.40
2022-09-15T12:20:17.101Z,3.00
2022-09-15T12:21:16.092Z,2.60
2022-09-15T12:22:16.078Z,2.70
2022-09-15T12:23:16.060Z,3.10
2022-09-15T12:24:16.106Z,2.60
2022-09-15T12:25:17.523Z,2.90
2022-09-15T12:26:16.546Z,2.90
2022-09-15T12:27:17.474Z,3.10
2022-09-15T12:28:16.020Z,2.80
2022-09-15T12:29:16.962Z,3.10
2022-09-15T12:30:16.043Z,2.90
2022-09-15T12:31:17.454Z,3.20
2022-09-15T12:32:16.981Z,2.60
2022-09-15T12:33:16.905Z,2.80
2022-09-15T12:34:16.080Z,2.70
2022-09-15T12:35:15.954Z,2.70
2022-09-15T12:36:16.047Z,2.40
2022-09-15T12:37:15.909Z,2.50
2022-09-15T12:38:16.073Z,2.50
2022-09-15T12:39:15.888Z,2.70
2022-09-15T12:40:15.948Z,2.50
2022-09-15T12:41:15.888Z,2.10
2022-09-15T12:42:16.030Z,2.60
2022-09-15T12:43:15.870Z,2.40
2022-09-15T12:44:15.829Z,1.90
2022-09-15T12:45:15.851Z,2.00
2022-09-15T12:46:15.885Z,2.30
2022-09-15T12:47:16.650Z,2.10
2022-09-15T12:48:16.149Z,1.70
2022-09-15T12:49:15.771Z,1.70
2022-09-15T12:50:15.868Z,1.90
2022-09-15T12:51:15.771Z,2.10
2022-09-15T12:52:16.268Z,1.90
2022-09-15T12:53:15.776Z,1.90
2022-09-15T12:54:15.735Z,1.80
2022-09-15T12:55:15.733Z,1.90
2022-09-15T12:56:16.553Z,1.50
2022-09-15T12:57:15.686Z,1.70
2022-09-15T12:58:15.727Z,1.90
2022-09-15T12:59:15.879Z,1.80
2022-09-15T13:00:15.658Z,1.60
2022-09-15T13:01:18.379Z,1.60
2022-09-15T13:02:15.746Z,1.70
2022-09-15T13:03:15.971Z,1.50
2022-09-15T13:04:15.926Z,1.70
2022-09-15T13:05:15.597Z,1.60
2022-09-15T13:06:15.588Z,1.50
2022-09-15T13:07:15.560Z,1.70
2022-09-15T13:08:15.604Z,1.70